sensor_id;sensor_type;location;lat;lon;timestamp;P1;durP1;ratioP1;P2;durP2;ratioP2
70414;SDS011;57837;52.064;113.478;2022-10-23T00:02:01;106.45;;;37.85;;
70414;SDS011;57837;52.064;113.478;2022-10-23T00:05:05;120.82;;;41.80;;
70414;SDS011;57837;52.064;113.478;2022-10-23T00:08:09;126.90;;;44.33;;
70414;SDS011;57837;52.064;113.478;2022-10-23T00:11:14;155.63;;;50.72;;
70414;SDS011;57837;52.064;113.478;2022-10-23T00:14:21;160.60;;;55.83;;
70414;SDS011;57837;52.064;113.478;2022-10-23T00:17:26;121.25;;;43.80;;
70414;SDS011;57837;52.064;113.478;2022-10-23T00:20:30;93.63;;;38.87;;
70414;SDS011;57837;52.064;113.478;2022-10-23T00:23:34;94.63;;;44.30;;
70414;SDS011;57837;52.064;113.478;2022-10-23T00:26:37;100.45;;;45.97;;
70414;SDS011;57837;52.064;113.478;2022-10-23T00:29:43;97.55;;;41.28;;
70414;SDS011;57837;52.064;113.478;2022-10-23T00:32:47;78.78;;;35.47;;
70414;SDS011;57837;52.064;113.478;2022-10-23T00:35:51;79.63;;;35.00;;
70414;SDS011;57837;52.064;113.478;2022-10-23T00:38:55;86.47;;;34.08;;
70414;SDS011;57837;52.064;113.478;2022-10-23T00:41:58;76.85;;;33.15;;
70414;SDS011;57837;52.064;113.478;2022-10-23T00:48:12;73.97;;;34.22;;
70414;SDS011;57837;52.064;113.478;2022-10-23T00:51:17;85.13;;;35.17;;
70414;SDS011;57837;52.064;113.478;2022-10-23T00:54:22;90.97;;;39.95;;
70414;SDS011;57837;52.064;113.478;2022-10-23T00:57:29;89.50;;;39.78;;
70414;SDS011;57837;52.064;113.478;2022-10-23T01:00:43;95.85;;;42.15;;
70414;SDS011;57837;52.064;113.478;2022-10-23T01:03:49;60.28;;;27.77;;
70414;SDS011;57837;52.064;113.478;2022-10-23T01:07:04;81.53;;;35.43;;
70414;SDS011;57837;52.064;113.478;2022-10-23T01:10:22;78.10;;;33.90;;
70414;SDS011;57837;52.064;113.478;2022-10-23T01:16:49;74.25;;;31.30;;
70414;SDS011;57837;52.064;113.478;2022-10-23T01:30:18;59.22;;;27.73;;
70414;SDS011;57837;52.064;113.478;2022-10-23T01:33:26;64.00;;;28.15;;
70414;SDS011;57837;52.064;113.478;2022-10-23T01:36:36;66.28;;;27.83;;
70414;SDS011;57837;52.064;113.478;2022-10-23T01:39:44;66.27;;;29.33;;
70414;SDS011;57837;52.064;113.478;2022-10-23T01:42:53;76.32;;;32.40;;
70414;SDS011;57837;52.064;113.478;2022-10-23T01:46:02;91.45;;;38.17;;
70414;SDS011;57837;52.064;113.478;2022-10-23T01:49:12;79.82;;;32.70;;
70414;SDS011;57837;52.064;113.478;2022-10-23T01:52:18;60.92;;;28.73;;
70414;SDS011;57837;52.064;113.478;2022-10-23T01:55:25;76.87;;;34.33;;
70414;SDS011;57837;52.064;113.478;2022-10-23T01:58:32;89.22;;;37.03;;
70414;SDS011;57837;52.064;113.478;2022-10-23T02:01:38;84.82;;;35.78;;
70414;SDS011;57837;52.064;113.478;2022-10-23T02:07:56;74.25;;;29.95;;
70414;SDS011;57837;52.064;113.478;2022-10-23T02:14:26;55.17;;;25.20;;
70414;SDS011;57837;52.064;113.478;2022-10-23T02:20:47;54.10;;;26.00;;
70414;SDS011;57837;52.064;113.478;2022-10-23T02:24:10;59.80;;;23.77;;
70414;SDS011;57837;52.064;113.478;2022-10-23T02:27:24;53.17;;;23.63;;
70414;SDS011;57837;52.064;113.478;2022-10-23T02:30:33;56.63;;;25.02;;
70414;SDS011;57837;52.064;113.478;2022-10-23T02:33:43;54.10;;;22.33;;
70414;SDS011;57837;52.064;113.478;2022-10-23T02:36:48;56.30;;;25.38;;
70414;SDS011;57837;52.064;113.478;2022-10-23T02:39:54;52.53;;;24.13;;
70414;SDS011;57837;52.064;113.478;2022-10-23T02:43:07;56.47;;;23.37;;
70414;SDS011;57837;52.064;113.478;2022-10-23T02:53:20;55.75;;;25.15;;
70414;SDS011;57837;52.064;113.478;2022-10-23T02:59:46;65.20;;;25.63;;
70414;SDS011;57837;52.064;113.478;2022-10-23T03:03:01;63.80;;;26.75;;
70414;SDS011;57837;52.064;113.478;2022-10-23T03:06:12;73.28;;;27.27;;
70414;SDS011;57837;52.064;113.478;2022-10-23T03:09:17;60.55;;;24.38;;
70414;SDS011;57837;52.064;113.478;2022-10-23T03:12:21;69.05;;;25.30;;
70414;SDS011;57837;52.064;113.478;2022-10-23T03:15:25;63.53;;;27.43;;
70414;SDS011;57837;52.064;113.478;2022-10-23T03:18:29;59.72;;;26.45;;
70414;SDS011;57837;52.064;113.478;2022-10-23T03:21:34;62.78;;;28.05;;
70414;SDS011;57837;52.064;113.478;2022-10-23T03:24:41;72.07;;;28.08;;
70414;SDS011;57837;52.064;113.478;2022-10-23T03:27:44;57.47;;;26.40;;
70414;SDS011;57837;52.064;113.478;2022-10-23T03:30:50;66.03;;;28.83;;
70414;SDS011;57837;52.064;113.478;2022-10-23T03:33:54;58.00;;;25.27;;
70414;SDS011;57837;52.064;113.478;2022-10-23T03:36:57;55.50;;;26.40;;
70414;SDS011;57837;52.064;113.478;2022-10-23T03:40:00;58.85;;;27.10;;
70414;SDS011;57837;52.064;113.478;2022-10-23T03:43:07;61.22;;;28.00;;
70414;SDS011;57837;52.064;113.478;2022-10-23T03:46:11;61.63;;;27.23;;
70414;SDS011;57837;52.064;113.478;2022-10-23T03:49:15;53.65;;;24.60;;
70414;SDS011;57837;52.064;113.478;2022-10-23T03:52:19;55.83;;;25.77;;
70414;SDS011;57837;52.064;113.478;2022-10-23T03:55:24;56.40;;;24.95;;
70414;SDS011;57837;52.064;113.478;2022-10-23T03:58:28;51.80;;;25.35;;
70414;SDS011;57837;52.064;113.478;2022-10-23T04:01:33;54.07;;;24.67;;
70414;SDS011;57837;52.064;113.478;2022-10-23T04:04:37;56.42;;;24.20;;
70414;SDS011;57837;52.064;113.478;2022-10-23T04:07:41;47.30;;;22.55;;
70414;SDS011;57837;52.064;113.478;2022-10-23T04:10:45;53.15;;;23.50;;
70414;SDS011;57837;52.064;113.478;2022-10-23T04:13:50;49.22;;;23.42;;
70414;SDS011;57837;52.064;113.478;2022-10-23T04:16:53;43.43;;;20.27;;
70414;SDS011;57837;52.064;113.478;2022-10-23T04:19:57;48.95;;;20.58;;
70414;SDS011;57837;52.064;113.478;2022-10-23T04:23:01;57.15;;;23.00;;
70414;SDS011;57837;52.064;113.478;2022-10-23T04:26:07;46.97;;;20.42;;
70414;SDS011;57837;52.064;113.478;2022-10-23T04:29:11;46.20;;;21.67;;
70414;SDS011;57837;52.064;113.478;2022-10-23T04:32:15;49.40;;;22.47;;
70414;SDS011;57837;52.064;113.478;2022-10-23T04:35:19;52.30;;;22.55;;
70414;SDS011;57837;52.064;113.478;2022-10-23T04:38:22;53.50;;;24.05;;
70414;SDS011;57837;52.064;113.478;2022-10-23T04:41:27;51.53;;;22.60;;
70414;SDS011;57837;52.064;113.478;2022-10-23T04:44:31;54.63;;;23.73;;
70414;SDS011;57837;52.064;113.478;2022-10-23T04:47:36;68.47;;;28.57;;
70414;SDS011;57837;52.064;113.478;2022-10-23T04:50:39;57.45;;;25.55;;
70414;SDS011;57837;52.064;113.478;2022-10-23T04:54:03;48.97;;;22.10;;
70414;SDS011;57837;52.064;113.478;2022-10-23T04:57:28;44.53;;;19.27;;
70414;SDS011;57837;52.064;113.478;2022-10-23T05:00:34;44.67;;;20.10;;
70414;SDS011;57837;52.064;113.478;2022-10-23T05:03:38;48.07;;;19.63;;
70414;SDS011;57837;52.064;113.478;2022-10-23T05:06:43;36.28;;;17.58;;
70414;SDS011;57837;52.064;113.478;2022-10-23T05:10:00;19.33;;;9.80;;
70414;SDS011;57837;52.064;113.478;2022-10-23T05:13:13;27.17;;;10.60;;
70414;SDS011;57837;52.064;113.478;2022-10-23T05:16:30;23.13;;;9.00;;
70414;SDS011;57837;52.064;113.478;2022-10-23T05:19:41;25.53;;;11.23;;
70414;SDS011;57837;52.064;113.478;2022-10-23T05:22:48;23.88;;;10.38;;
70414;SDS011;57837;52.064;113.478;2022-10-23T05:25:55;27.50;;;11.98;;
70414;SDS011;57837;52.064;113.478;2022-10-23T05:28:58;21.77;;;10.02;;
70414;SDS011;57837;52.064;113.478;2022-10-23T05:32:03;18.17;;;8.60;;
70414;SDS011;57837;52.064;113.478;2022-10-23T05:35:14;31.07;;;10.20;;
70414;SDS011;57837;52.064;113.478;2022-10-23T05:38:23;32.25;;;10.63;;
70414;SDS011;57837;52.064;113.478;2022-10-23T05:41:28;25.95;;;10.50;;
70414;SDS011;57837;52.064;113.478;2022-10-23T05:44:33;20.63;;;9.77;;
70414;SDS011;57837;52.064;113.478;2022-10-23T05:48:06;20.05;;;8.88;;
70414;SDS011;57837;52.064;113.478;2022-10-23T05:51:49;22.80;;;9.50;;
70414;SDS011;57837;52.064;113.478;2022-10-23T05:55:13;15.82;;;8.00;;
70414;SDS011;57837;52.064;113.478;2022-10-23T05:58:33;18.10;;;8.07;;
70414;SDS011;57837;52.064;113.478;2022-10-23T06:02:03;15.13;;;6.63;;
70414;SDS011;57837;52.064;113.478;2022-10-23T06:05:21;12.55;;;6.05;;
70414;SDS011;57837;52.064;113.478;2022-10-23T06:08:45;18.93;;;7.13;;
70414;SDS011;57837;52.064;113.478;2022-10-23T06:11:50;17.83;;;7.03;;
70414;SDS011;57837;52.064;113.478;2022-10-23T06:14:56;20.20;;;7.75;;
70414;SDS011;57837;52.064;113.478;2022-10-23T06:18:13;16.70;;;7.55;;
70414;SDS011;57837;52.064;113.478;2022-10-23T06:21:29;17.85;;;7.05;;
70414;SDS011;57837;52.064;113.478;2022-10-23T06:24:33;15.20;;;8.20;;
70414;SDS011;57837;52.064;113.478;2022-10-23T06:27:39;14.18;;;6.97;;
70414;SDS011;57837;52.064;113.478;2022-10-23T06:30:44;17.25;;;7.38;;
70414;SDS011;57837;52.064;113.478;2022-10-23T06:33:47;14.90;;;7.65;;
70414;SDS011;57837;52.064;113.478;2022-10-23T06:36:51;14.48;;;5.50;;
70414;SDS011;57837;52.064;113.478;2022-10-23T06:40:15;12.67;;;5.40;;
70414;SDS011;57837;52.064;113.478;2022-10-23T06:43:30;10.57;;;4.95;;
70414;SDS011;57837;52.064;113.478;2022-10-23T06:46:49;8.27;;;3.83;;
70414;SDS011;57837;52.064;113.478;2022-10-23T06:50:13;9.18;;;3.80;;
70414;SDS011;57837;52.064;113.478;2022-10-23T06:53:18;9.75;;;4.07;;
70414;SDS011;57837;52.064;113.478;2022-10-23T06:56:28;10.53;;;5.17;;
70414;SDS011;57837;52.064;113.478;2022-10-23T06:59:33;11.07;;;5.22;;
70414;SDS011;57837;52.064;113.478;2022-10-23T07:02:41;12.07;;;3.83;;
70414;SDS011;57837;52.064;113.478;2022-10-23T07:05:45;8.38;;;3.38;;
70414;SDS011;57837;52.064;113.478;2022-10-23T07:08:49;10.45;;;3.10;;
70414;SDS011;57837;52.064;113.478;2022-10-23T07:12:22;7.47;;;3.17;;
70414;SDS011;57837;52.064;113.478;2022-10-23T07:15:41;6.60;;;3.63;;
70414;SDS011;57837;52.064;113.478;2022-10-23T07:18:52;10.88;;;4.38;;
70414;SDS011;57837;52.064;113.478;2022-10-23T07:22:01;5.47;;;2.67;;
70414;SDS011;57837;52.064;113.478;2022-10-23T07:25:15;7.13;;;2.45;;
70414;SDS011;57837;52.064;113.478;2022-10-23T07:28:19;6.70;;;2.53;;
70414;SDS011;57837;52.064;113.478;2022-10-23T07:31:23;7.10;;;2.95;;
70414;SDS011;57837;52.064;113.478;2022-10-23T07:34:47;5.95;;;2.90;;
70414;SDS011;57837;52.064;113.478;2022-10-23T07:38:04;8.70;;;3.70;;
70414;SDS011;57837;52.064;113.478;2022-10-23T07:41:12;11.88;;;4.10;;
70414;SDS011;57837;52.064;113.478;2022-10-23T07:44:16;21.23;;;7.50;;
70414;SDS011;57837;52.064;113.478;2022-10-23T07:47:24;12.88;;;5.00;;
70414;SDS011;57837;52.064;113.478;2022-10-23T07:50:28;9.32;;;4.43;;
70414;SDS011;57837;52.064;113.478;2022-10-23T07:53:33;13.68;;;4.60;;
70414;SDS011;57837;52.064;113.478;2022-10-23T07:56:49;10.13;;;4.55;;
70414;SDS011;57837;52.064;113.478;2022-10-23T08:00:32;18.57;;;5.77;;
70414;SDS011;57837;52.064;113.478;2022-10-23T08:03:46;22.50;;;6.18;;
70414;SDS011;57837;52.064;113.478;2022-10-23T08:06:51;20.83;;;6.55;;
70414;SDS011;57837;52.064;113.478;2022-10-23T08:09:54;20.05;;;6.70;;
70414;SDS011;57837;52.064;113.478;2022-10-23T08:12:59;16.40;;;5.28;;
70414;SDS011;57837;52.064;113.478;2022-10-23T08:16:24;14.03;;;5.90;;
70414;SDS011;57837;52.064;113.478;2022-10-23T08:19:48;14.15;;;6.10;;
70414;SDS011;57837;52.064;113.478;2022-10-23T08:22:53;27.40;;;7.82;;
70414;SDS011;57837;52.064;113.478;2022-10-23T08:26:01;18.67;;;6.90;;
70414;SDS011;57837;52.064;113.478;2022-10-23T08:29:07;18.17;;;6.82;;
70414;SDS011;57837;52.064;113.478;2022-10-23T08:32:11;10.80;;;5.07;;
70414;SDS011;57837;52.064;113.478;2022-10-23T08:35:36;17.55;;;6.25;;
70414;SDS011;57837;52.064;113.478;2022-10-23T08:38:41;43.28;;;16.60;;
70414;SDS011;57837;52.064;113.478;2022-10-23T08:41:50;118.40;;;41.67;;
70414;SDS011;57837;52.064;113.478;2022-10-23T08:44:58;136.05;;;51.47;;
70414;SDS011;57837;52.064;113.478;2022-10-23T08:48:20;199.73;;;80.77;;
70414;SDS011;57837;52.064;113.478;2022-10-23T08:52:05;223.90;;;99.28;;
70414;SDS011;57837;52.064;113.478;2022-10-23T08:55:32;223.75;;;91.68;;
70414;SDS011;57837;52.064;113.478;2022-10-23T08:58:50;205.73;;;85.88;;
70414;SDS011;57837;52.064;113.478;2022-10-23T09:05:02;149.03;;;58.73;;
70414;SDS011;57837;52.064;113.478;2022-10-23T09:18:22;90.28;;;28.70;;
70414;SDS011;57837;52.064;113.478;2022-10-23T09:21:26;77.37;;;27.57;;
70414;SDS011;57837;52.064;113.478;2022-10-23T09:24:30;96.10;;;34.45;;
70414;SDS011;57837;52.064;113.478;2022-10-23T09:27:34;115.32;;;41.13;;
70414;SDS011;57837;52.064;113.478;2022-10-23T09:30:39;114.53;;;39.40;;
70414;SDS011;57837;52.064;113.478;2022-10-23T09:33:57;115.50;;;42.55;;
70414;SDS011;57837;52.064;113.478;2022-10-23T09:37:03;111.13;;;41.03;;
70414;SDS011;57837;52.064;113.478;2022-10-23T09:40:30;151.93;;;56.40;;
70414;SDS011;57837;52.064;113.478;2022-10-23T09:43:40;173.48;;;64.72;;
70414;SDS011;57837;52.064;113.478;2022-10-23T09:46:45;155.50;;;56.80;;
70414;SDS011;57837;52.064;113.478;2022-10-23T09:49:56;126.82;;;45.00;;
70414;SDS011;57837;52.064;113.478;2022-10-23T09:53:00;103.47;;;38.20;;
70414;SDS011;57837;52.064;113.478;2022-10-23T09:56:06;110.10;;;39.03;;
70414;SDS011;57837;52.064;113.478;2022-10-23T09:59:26;118.72;;;43.67;;
70414;SDS011;57837;52.064;113.478;2022-10-23T10:02:33;124.70;;;48.70;;
70414;SDS011;57837;52.064;113.478;2022-10-23T10:05:40;91.45;;;32.75;;
70414;SDS011;57837;52.064;113.478;2022-10-23T10:08:58;67.00;;;28.03;;
70414;SDS011;57837;52.064;113.478;2022-10-23T10:12:17;69.95;;;27.75;;
70414;SDS011;57837;52.064;113.478;2022-10-23T10:15:29;70.10;;;27.17;;
70414;SDS011;57837;52.064;113.478;2022-10-23T10:25:47;73.97;;;25.90;;
70414;SDS011;57837;52.064;113.478;2022-10-23T10:29:03;56.53;;;20.20;;
70414;SDS011;57837;52.064;113.478;2022-10-23T10:39:00;57.67;;;21.02;;
70414;SDS011;57837;52.064;113.478;2022-10-23T10:42:24;27.43;;;13.23;;
70414;SDS011;57837;52.064;113.478;2022-10-23T10:45:36;40.65;;;16.83;;
70414;SDS011;57837;52.064;113.478;2022-10-23T10:55:51;38.65;;;13.70;;
70414;SDS011;57837;52.064;113.478;2022-10-23T10:59:09;29.20;;;12.80;;
70414;SDS011;57837;52.064;113.478;2022-10-23T11:02:28;33.00;;;15.32;;
70414;SDS011;57837;52.064;113.478;2022-10-23T11:05:40;31.17;;;12.18;;
70414;SDS011;57837;52.064;113.478;2022-10-23T11:08:46;28.75;;;11.95;;
70414;SDS011;57837;52.064;113.478;2022-10-23T11:12:18;20.75;;;8.73;;
70414;SDS011;57837;52.064;113.478;2022-10-23T11:15:32;27.73;;;10.60;;
70414;SDS011;57837;52.064;113.478;2022-10-23T11:18:42;28.73;;;11.25;;
70414;SDS011;57837;52.064;113.478;2022-10-23T11:38:36;25.73;;;11.95;;
70414;SDS011;57837;52.064;113.478;2022-10-23T11:41:46;24.52;;;10.52;;
70414;SDS011;57837;52.064;113.478;2022-10-23T11:45:01;24.75;;;11.30;;
70414;SDS011;57837;52.064;113.478;2022-10-23T11:51:27;24.50;;;11.27;;
70414;SDS011;57837;52.064;113.478;2022-10-23T11:54:37;24.70;;;11.50;;
70414;SDS011;57837;52.064;113.478;2022-10-23T11:57:42;28.45;;;12.95;;
70414;SDS011;57837;52.064;113.478;2022-10-23T12:04:48;31.23;;;13.20;;
70414;SDS011;57837;52.064;113.478;2022-10-23T12:07:54;281.27;;;108.70;;
70414;SDS011;57837;52.064;113.478;2022-10-23T12:11:01;429.70;;;173.80;;
70414;SDS011;57837;52.064;113.478;2022-10-23T12:14:28;436.35;;;176.35;;
70414;SDS011;57837;52.064;113.478;2022-10-23T12:17:41;419.05;;;165.38;;
70414;SDS011;57837;52.064;113.478;2022-10-23T12:21:02;424.30;;;163.23;;
70414;SDS011;57837;52.064;113.478;2022-10-23T12:41:09;403.45;;;156.80;;
70414;SDS011;57837;52.064;113.478;2022-10-23T12:44:20;402.70;;;159.85;;
70414;SDS011;57837;52.064;113.478;2022-10-23T12:47:26;420.60;;;168.88;;
70414;SDS011;57837;52.064;113.478;2022-10-23T12:50:32;405.05;;;162.18;;
70414;SDS011;57837;52.064;113.478;2022-10-23T12:53:36;394.73;;;156.50;;
70414;SDS011;57837;52.064;113.478;2022-10-23T12:56:40;385.67;;;150.15;;
70414;SDS011;57837;52.064;113.478;2022-10-23T12:59:46;405.55;;;160.63;;
70414;SDS011;57837;52.064;113.478;2022-10-23T13:02:57;359.23;;;146.48;;
70414;SDS011;57837;52.064;113.478;2022-10-23T13:06:03;365.02;;;139.93;;
70414;SDS011;57837;52.064;113.478;2022-10-23T13:09:12;358.13;;;136.80;;
70414;SDS011;57837;52.064;113.478;2022-10-23T13:13:01;371.52;;;145.13;;
70414;SDS011;57837;52.064;113.478;2022-10-23T13:16:14;364.35;;;139.43;;
70414;SDS011;57837;52.064;113.478;2022-10-23T13:19:24;358.85;;;135.50;;
70414;SDS011;57837;52.064;113.478;2022-10-23T13:22:28;359.55;;;143.38;;
70414;SDS011;57837;52.064;113.478;2022-10-23T13:25:33;339.00;;;134.97;;
70414;SDS011;57837;52.064;113.478;2022-10-23T13:28:41;327.67;;;127.55;;
70414;SDS011;57837;52.064;113.478;2022-10-23T13:31:47;311.58;;;123.43;;
70414;SDS011;57837;52.064;113.478;2022-10-23T13:34:52;294.77;;;111.45;;
70414;SDS011;57837;52.064;113.478;2022-10-23T13:38:11;274.25;;;109.35;;
70414;SDS011;57837;52.064;113.478;2022-10-23T13:41:17;278.00;;;107.93;;
70414;SDS011;57837;52.064;113.478;2022-10-23T13:44:22;237.40;;;94.00;;
70414;SDS011;57837;52.064;113.478;2022-10-23T13:47:27;243.55;;;87.68;;
70414;SDS011;57837;52.064;113.478;2022-10-23T13:50:30;225.43;;;84.18;;
70414;SDS011;57837;52.064;113.478;2022-10-23T13:53:34;268.75;;;102.65;;
70414;SDS011;57837;52.064;113.478;2022-10-23T13:56:37;277.83;;;104.50;;
70414;SDS011;57837;52.064;113.478;2022-10-23T13:59:41;295.55;;;112.40;;
70414;SDS011;57837;52.064;113.478;2022-10-23T14:02:45;256.95;;;101.45;;
70414;SDS011;57837;52.064;113.478;2022-10-23T14:05:49;301.77;;;108.88;;
70414;SDS011;57837;52.064;113.478;2022-10-23T14:08:53;299.40;;;105.38;;
70414;SDS011;57837;52.064;113.478;2022-10-23T14:11:58;303.70;;;109.27;;
70414;SDS011;57837;52.064;113.478;2022-10-23T14:15:01;288.42;;;109.13;;
70414;SDS011;57837;52.064;113.478;2022-10-23T14:18:05;287.20;;;108.03;;
70414;SDS011;57837;52.064;113.478;2022-10-23T14:21:11;280.63;;;102.00;;
70414;SDS011;57837;52.064;113.478;2022-10-23T14:24:16;276.98;;;103.65;;
70414;SDS011;57837;52.064;113.478;2022-10-23T14:27:20;280.27;;;104.83;;
70414;SDS011;57837;52.064;113.478;2022-10-23T14:30:24;276.42;;;102.53;;
70414;SDS011;57837;52.064;113.478;2022-10-23T14:33:28;260.10;;;95.80;;
70414;SDS011;57837;52.064;113.478;2022-10-23T14:36:32;255.35;;;95.38;;
70414;SDS011;57837;52.064;113.478;2022-10-23T14:39:51;247.65;;;92.20;;
70414;SDS011;57837;52.064;113.478;2022-10-23T14:42:55;276.23;;;103.70;;
70414;SDS011;57837;52.064;113.478;2022-10-23T14:46:06;302.77;;;111.22;;
70414;SDS011;57837;52.064;113.478;2022-10-23T14:49:11;296.02;;;114.63;;
70414;SDS011;57837;52.064;113.478;2022-10-23T14:52:14;324.95;;;120.43;;
70414;SDS011;57837;52.064;113.478;2022-10-23T14:55:19;212.43;;;76.38;;
70414;SDS011;57837;52.064;113.478;2022-10-23T14:58:23;103.40;;;41.93;;
70414;SDS011;57837;52.064;113.478;2022-10-23T15:01:27;85.80;;;33.63;;
70414;SDS011;57837;52.064;113.478;2022-10-23T15:04:37;101.38;;;41.58;;
70414;SDS011;57837;52.064;113.478;2022-10-23T15:07:41;112.38;;;42.90;;
70414;SDS011;57837;52.064;113.478;2022-10-23T15:10:44;109.47;;;42.65;;
70414;SDS011;57837;52.064;113.478;2022-10-23T15:13:48;109.87;;;40.47;;
70414;SDS011;57837;52.064;113.478;2022-10-23T15:16:52;115.82;;;40.50;;
70414;SDS011;57837;52.064;113.478;2022-10-23T15:19:56;121.18;;;45.60;;
70414;SDS011;57837;52.064;113.478;2022-10-23T15:23:00;96.85;;;35.28;;
70414;SDS011;57837;52.064;113.478;2022-10-23T15:26:06;113.95;;;39.90;;
70414;SDS011;57837;52.064;113.478;2022-10-23T15:29:12;190.73;;;69.23;;
70414;SDS011;57837;52.064;113.478;2022-10-23T15:32:17;220.57;;;82.63;;
70414;SDS011;57837;52.064;113.478;2022-10-23T15:35:20;230.07;;;81.50;;
70414;SDS011;57837;52.064;113.478;2022-10-23T15:38:24;238.27;;;85.53;;
70414;SDS011;57837;52.064;113.478;2022-10-23T15:41:29;263.02;;;95.82;;
70414;SDS011;57837;52.064;113.478;2022-10-23T15:44:34;229.20;;;84.57;;
70414;SDS011;57837;52.064;113.478;2022-10-23T15:47:38;280.77;;;102.90;;
70414;SDS011;57837;52.064;113.478;2022-10-23T15:50:42;250.35;;;87.15;;
70414;SDS011;57837;52.064;113.478;2022-10-23T15:53:45;155.10;;;58.38;;
70414;SDS011;57837;52.064;113.478;2022-10-23T15:56:50;171.40;;;63.70;;
70414;SDS011;57837;52.064;113.478;2022-10-23T15:59:55;184.57;;;71.77;;
70414;SDS011;57837;52.064;113.478;2022-10-23T16:03:00;233.38;;;86.03;;
70414;SDS011;57837;52.064;113.478;2022-10-23T16:06:07;234.45;;;85.05;;
70414;SDS011;57837;52.064;113.478;2022-10-23T16:09:13;237.20;;;85.72;;
70414;SDS011;57837;52.064;113.478;2022-10-23T16:12:17;250.45;;;90.20;;
70414;SDS011;57837;52.064;113.478;2022-10-23T16:15:21;246.17;;;89.33;;
70414;SDS011;57837;52.064;113.478;2022-10-23T16:18:25;266.40;;;96.25;;
70414;SDS011;57837;52.064;113.478;2022-10-23T16:21:31;256.25;;;97.13;;
70414;SDS011;57837;52.064;113.478;2022-10-23T16:24:36;287.40;;;99.28;;
70414;SDS011;57837;52.064;113.478;2022-10-23T16:27:41;273.20;;;100.25;;
70414;SDS011;57837;52.064;113.478;2022-10-23T16:30:45;250.27;;;91.67;;
70414;SDS011;57837;52.064;113.478;2022-10-23T16:33:49;217.23;;;81.85;;
70414;SDS011;57837;52.064;113.478;2022-10-23T16:36:53;195.48;;;74.88;;
70414;SDS011;57837;52.064;113.478;2022-10-23T16:40:11;181.82;;;64.20;;
70414;SDS011;57837;52.064;113.478;2022-10-23T16:43:35;187.50;;;67.38;;
70414;SDS011;57837;52.064;113.478;2022-10-23T16:46:56;167.97;;;62.60;;
70414;SDS011;57837;52.064;113.478;2022-10-23T16:50:00;171.15;;;62.25;;
70414;SDS011;57837;52.064;113.478;2022-10-23T16:53:04;163.20;;;59.88;;
70414;SDS011;57837;52.064;113.478;2022-10-23T16:56:08;183.65;;;65.32;;
70414;SDS011;57837;52.064;113.478;2022-10-23T16:59:13;168.60;;;65.07;;
70414;SDS011;57837;52.064;113.478;2022-10-23T17:02:18;173.57;;;63.70;;
70414;SDS011;57837;52.064;113.478;2022-10-23T17:05:22;170.25;;;61.33;;
70414;SDS011;57837;52.064;113.478;2022-10-23T17:08:26;187.43;;;74.43;;
70414;SDS011;57837;52.064;113.478;2022-10-23T17:11:31;184.65;;;71.47;;
70414;SDS011;57837;52.064;113.478;2022-10-23T17:14:37;186.55;;;68.60;;
70414;SDS011;57837;52.064;113.478;2022-10-23T17:17:42;165.32;;;67.53;;
70414;SDS011;57837;52.064;113.478;2022-10-23T17:20:46;176.60;;;68.20;;
70414;SDS011;57837;52.064;113.478;2022-10-23T17:23:59;168.05;;;68.13;;
70414;SDS011;57837;52.064;113.478;2022-10-23T17:27:03;193.57;;;79.95;;
70414;SDS011;57837;52.064;113.478;2022-10-23T17:30:08;186.90;;;74.27;;
70414;SDS011;57837;52.064;113.478;2022-10-23T17:33:14;169.27;;;64.07;;
70414;SDS011;57837;52.064;113.478;2022-10-23T17:36:19;183.77;;;74.28;;
70414;SDS011;57837;52.064;113.478;2022-10-23T17:39:24;148.90;;;61.58;;
70414;SDS011;57837;52.064;113.478;2022-10-23T17:42:30;139.43;;;51.80;;
70414;SDS011;57837;52.064;113.478;2022-10-23T17:45:34;116.65;;;46.65;;
70414;SDS011;57837;52.064;113.478;2022-10-23T17:48:39;120.60;;;43.60;;
70414;SDS011;57837;52.064;113.478;2022-10-23T17:51:48;105.72;;;38.53;;
70414;SDS011;57837;52.064;113.478;2022-10-23T17:54:54;117.77;;;39.97;;
70414;SDS011;57837;52.064;113.478;2022-10-23T17:57:57;120.50;;;39.10;;
70414;SDS011;57837;52.064;113.478;2022-10-23T18:01:08;117.35;;;40.67;;
70414;SDS011;57837;52.064;113.478;2022-10-23T18:04:14;114.38;;;43.67;;
70414;SDS011;57837;52.064;113.478;2022-10-23T18:07:19;120.67;;;44.30;;
70414;SDS011;57837;52.064;113.478;2022-10-23T18:10:23;117.05;;;42.47;;
70414;SDS011;57837;52.064;113.478;2022-10-23T18:13:27;114.20;;;43.15;;
70414;SDS011;57837;52.064;113.478;2022-10-23T18:16:30;113.03;;;44.42;;
70414;SDS011;57837;52.064;113.478;2022-10-23T18:19:35;104.55;;;40.22;;
70414;SDS011;57837;52.064;113.478;2022-10-23T18:22:39;114.33;;;41.80;;
70414;SDS011;57837;52.064;113.478;2022-10-23T18:25:43;114.05;;;41.70;;
70414;SDS011;57837;52.064;113.478;2022-10-23T18:28:48;133.88;;;43.60;;
70414;SDS011;57837;52.064;113.478;2022-10-23T18:31:53;116.47;;;42.30;;
70414;SDS011;57837;52.064;113.478;2022-10-23T18:34:57;134.00;;;47.65;;
70414;SDS011;57837;52.064;113.478;2022-10-23T18:38:02;138.07;;;48.20;;
70414;SDS011;57837;52.064;113.478;2022-10-23T18:41:06;165.98;;;55.38;;
70414;SDS011;57837;52.064;113.478;2022-10-23T18:44:13;159.23;;;55.10;;
70414;SDS011;57837;52.064;113.478;2022-10-23T18:47:19;157.90;;;53.78;;
70414;SDS011;57837;52.064;113.478;2022-10-23T18:50:23;142.43;;;48.77;;
70414;SDS011;57837;52.064;113.478;2022-10-23T18:53:26;86.20;;;34.08;;
70414;SDS011;57837;52.064;113.478;2022-10-23T18:56:31;103.47;;;36.30;;
70414;SDS011;57837;52.064;113.478;2022-10-23T18:59:37;63.25;;;25.70;;
70414;SDS011;57837;52.064;113.478;2022-10-23T19:02:41;42.00;;;17.80;;
70414;SDS011;57837;52.064;113.478;2022-10-23T19:05:45;61.50;;;24.98;;
70414;SDS011;57837;52.064;113.478;2022-10-23T19:08:50;50.42;;;20.95;;
70414;SDS011;57837;52.064;113.478;2022-10-23T19:11:54;60.25;;;22.33;;
70414;SDS011;57837;52.064;113.478;2022-10-23T19:14:58;100.65;;;37.25;;
70414;SDS011;57837;52.064;113.478;2022-10-23T19:18:02;126.85;;;45.78;;
70414;SDS011;57837;52.064;113.478;2022-10-23T19:21:08;142.57;;;48.67;;
70414;SDS011;57837;52.064;113.478;2022-10-23T19:24:12;175.07;;;62.45;;
70414;SDS011;57837;52.064;113.478;2022-10-23T19:27:22;174.13;;;63.67;;
70414;SDS011;57837;52.064;113.478;2022-10-23T19:30:27;238.27;;;98.07;;
70414;SDS011;57837;52.064;113.478;2022-10-23T19:33:32;180.57;;;69.85;;
70414;SDS011;57837;52.064;113.478;2022-10-23T19:36:37;150.73;;;53.47;;